sensor_id;sensor_type;location;lat;lon;timestamp;P1;durP1;ratioP1;P2;durP2;ratioP2
37169;SDS011;23062;13.952;100.608;2023-02-04T00:01:57;69.00;;;55.00;;
37169;SDS011;23062;13.952;100.608;2023-02-04T00:06:23;66.00;;;52.00;;
37169;SDS011;23062;13.952;100.608;2023-02-04T00:10:48;64.00;;;49.00;;
37169;SDS011;23062;13.952;100.608;2023-02-04T00:15:12;70.00;;;53.00;;
37169;SDS011;23062;13.952;100.608;2023-02-04T00:19:40;70.00;;;51.00;;
37169;SDS011;23062;13.952;100.608;2023-02-04T00:24:06;63.00;;;50.00;;
37169;SDS011;23062;13.952;100.608;2023-02-04T00:28:32;64.00;;;48.00;;
37169;SDS011;23062;13.952;100.608;2023-02-04T00:33:00;60.00;;;46.00;;
37169;SDS011;23062;13.952;100.608;2023-02-04T00:37:28;65.00;;;50.00;;
37169;SDS011;23062;13.952;100.608;2023-02-04T00:41:53;63.00;;;46.00;;
37169;SDS011;23062;13.952;100.608;2023-02-04T00:46:18;64.00;;;50.00;;
37169;SDS011;23062;13.952;100.608;2023-02-04T00:50:44;62.00;;;48.00;;
37169;SDS011;23062;13.952;100.608;2023-02-04T00:55:12;66.00;;;52.00;;
37169;SDS011;23062;13.952;100.608;2023-02-04T00:59:40;70.00;;;52.00;;
37169;SDS011;23062;13.952;100.608;2023-02-04T01:04:06;62.00;;;49.00;;
37169;SDS011;23062;13.952;100.608;2023-02-04T01:08:31;63.00;;;46.00;;
37169;SDS011;23062;13.952;100.608;2023-02-04T01:12:56;57.00;;;44.00;;
37169;SDS011;23062;13.952;100.608;2023-02-04T01:17:21;59.00;;;46.00;;
37169;SDS011;23062;13.952;100.608;2023-02-04T01:21:46;58.00;;;43.00;;
37169;SDS011;23062;13.952;100.608;2023-02-04T01:26:10;60.00;;;46.00;;
37169;SDS011;23062;13.952;100.608;2023-02-04T01:30:35;60.00;;;45.00;;
37169;SDS011;23062;13.952;100.608;2023-02-04T01:35:00;59.00;;;46.00;;
37169;SDS011;23062;13.952;100.608;2023-02-04T01:39:27;56.00;;;41.00;;
37169;SDS011;23062;13.952;100.608;2023-02-04T01:43:54;54.00;;;40.00;;
37169;SDS011;23062;13.952;100.608;2023-02-04T01:48:21;59.00;;;41.07;;
37169;SDS011;23062;13.952;100.608;2023-02-04T01:52:47;48.00;;;38.00;;
37169;SDS011;23062;13.952;100.608;2023-02-04T01:57:12;49.00;;;38.00;;
37169;SDS011;23062;13.952;100.608;2023-02-04T02:01:39;51.00;;;37.00;;
37169;SDS011;23062;13.952;100.608;2023-02-04T02:06:06;47.00;;;37.00;;
37169;SDS011;23062;13.952;100.608;2023-02-04T02:10:33;52.00;;;39.00;;
37169;SDS011;23062;13.952;100.608;2023-02-04T02:14:59;47.00;;;36.00;;
37169;SDS011;23062;13.952;100.608;2023-02-04T02:19:28;43.00;;;34.00;;
37169;SDS011;23062;13.952;100.608;2023-02-04T02:23:54;40.00;;;31.00;;
37169;SDS011;23062;13.952;100.608;2023-02-04T02:28:21;39.00;;;29.00;;
37169;SDS011;23062;13.952;100.608;2023-02-04T02:32:46;37.00;;;29.00;;
37169;SDS011;23062;13.952;100.608;2023-02-04T02:37:13;38.00;;;30.00;;
37169;SDS011;23062;13.952;100.608;2023-02-04T02:41:38;37.00;;;29.00;;
37169;SDS011;23062;13.952;100.608;2023-02-04T02:46:05;38.00;;;28.00;;
37169;SDS011;23062;13.952;100.608;2023-02-04T02:50:31;35.00;;;26.00;;
37169;SDS011;23062;13.952;100.608;2023-02-04T02:54:57;33.00;;;26.00;;
37169;SDS011;23062;13.952;100.608;2023-02-04T02:59:22;37.00;;;27.00;;
37169;SDS011;23062;13.952;100.608;2023-02-04T03:03:48;37.00;;;28.00;;
37169;SDS011;23062;13.952;100.608;2023-02-04T03:08:14;32.00;;;24.00;;
37169;SDS011;23062;13.952;100.608;2023-02-04T03:12:40;33.00;;;26.00;;
37169;SDS011;23062;13.952;100.608;2023-02-04T03:17:06;33.00;;;25.00;;
37169;SDS011;23062;13.952;100.608;2023-02-04T03:21:32;32.00;;;25.00;;
37169;SDS011;23062;13.952;100.608;2023-02-04T03:25:59;31.00;;;24.00;;
37169;SDS011;23062;13.952;100.608;2023-02-04T03:30:25;33.00;;;24.00;;
37169;SDS011;23062;13.952;100.608;2023-02-04T03:34:57;31.00;;;23.00;;
37169;SDS011;23062;13.952;100.608;2023-02-04T03:39:22;30.00;;;23.00;;
37169;SDS011;23062;13.952;100.608;2023-02-04T03:43:47;30.00;;;23.00;;
37169;SDS011;23062;13.952;100.608;2023-02-04T03:48:12;27.00;;;21.00;;
37169;SDS011;23062;13.952;100.608;2023-02-04T03:52:37;30.00;;;22.00;;
37169;SDS011;23062;13.952;100.608;2023-02-04T03:57:03;29.00;;;21.00;;
37169;SDS011;23062;13.952;100.608;2023-02-04T04:01:28;38.00;;;28.00;;
37169;SDS011;23062;13.952;100.608;2023-02-04T04:05:54;27.00;;;20.00;;
37169;SDS011;23062;13.952;100.608;2023-02-04T04:10:19;32.00;;;24.00;;
37169;SDS011;23062;13.952;100.608;2023-02-04T04:14:44;29.00;;;22.00;;
37169;SDS011;23062;13.952;100.608;2023-02-04T04:19:09;29.00;;;21.00;;
37169;SDS011;23062;13.952;100.608;2023-02-04T04:23:34;29.00;;;23.00;;
37169;SDS011;23062;13.952;100.608;2023-02-04T04:27:59;29.00;;;22.00;;
37169;SDS011;23062;13.952;100.608;2023-02-04T04:32:27;33.00;;;24.00;;
37169;SDS011;23062;13.952;100.608;2023-02-04T04:36:52;29.00;;;23.00;;
37169;SDS011;23062;13.952;100.608;2023-02-04T04:41:17;28.00;;;22.00;;
37169;SDS011;23062;13.952;100.608;2023-02-04T04:45:42;29.00;;;21.00;;
37169;SDS011;23062;13.952;100.608;2023-02-04T04:50:07;31.00;;;24.00;;
37169;SDS011;23062;13.952;100.608;2023-02-04T04:54:32;31.00;;;23.00;;
37169;SDS011;23062;13.952;100.608;2023-02-04T04:58:57;29.00;;;22.00;;
37169;SDS011;23062;13.952;100.608;2023-02-04T05:03:22;32.00;;;24.00;;
37169;SDS011;23062;13.952;100.608;2023-02-04T05:07:47;27.00;;;21.00;;
37169;SDS011;23062;13.952;100.608;2023-02-04T05:12:12;32.00;;;24.00;;
37169;SDS011;23062;13.952;100.608;2023-02-04T05:16:37;32.00;;;23.00;;
37169;SDS011;23062;13.952;100.608;2023-02-04T05:21:03;29.00;;;21.00;;
37169;SDS011;23062;13.952;100.608;2023-02-04T05:25:28;28.00;;;21.00;;
37169;SDS011;23062;13.952;100.608;2023-02-04T05:29:53;31.00;;;22.00;;
37169;SDS011;23062;13.952;100.608;2023-02-04T05:34:18;27.00;;;21.00;;
37169;SDS011;23062;13.952;100.608;2023-02-04T05:38:47;31.00;;;23.00;;
37169;SDS011;23062;13.952;100.608;2023-02-04T05:43:12;31.00;;;23.00;;
37169;SDS011;23062;13.952;100.608;2023-02-04T05:47:38;32.00;;;24.00;;
37169;SDS011;23062;13.952;100.608;2023-02-04T05:52:04;30.00;;;23.00;;
37169;SDS011;23062;13.952;100.608;2023-02-04T05:56:35;28.00;;;20.00;;
37169;SDS011;23062;13.952;100.608;2023-02-04T06:01:00;28.00;;;20.00;;
37169;SDS011;23062;13.952;100.608;2023-02-04T06:05:26;29.00;;;22.00;;
37169;SDS011;23062;13.952;100.608;2023-02-04T06:09:51;29.00;;;22.00;;
37169;SDS011;23062;13.952;100.608;2023-02-04T06:14:16;30.00;;;22.00;;
37169;SDS011;23062;13.952;100.608;2023-02-04T06:18:41;31.00;;;23.00;;
37169;SDS011;23062;13.952;100.608;2023-02-04T06:23:06;32.00;;;23.00;;
37169;SDS011;23062;13.952;100.608;2023-02-04T06:27:32;29.00;;;23.00;;
37169;SDS011;23062;13.952;100.608;2023-02-04T06:31:59;31.00;;;24.00;;
37169;SDS011;23062;13.952;100.608;2023-02-04T06:36:24;28.00;;;21.00;;
37169;SDS011;23062;13.952;100.608;2023-02-04T06:40:51;31.00;;;22.00;;
37169;SDS011;23062;13.952;100.608;2023-02-04T06:45:16;31.00;;;23.00;;
37169;SDS011;23062;13.952;100.608;2023-02-04T06:49:42;30.00;;;22.00;;
37169;SDS011;23062;13.952;100.608;2023-02-04T06:54:15;33.00;;;24.00;;
37169;SDS011;23062;13.952;100.608;2023-02-04T06:58:47;33.00;;;24.00;;
37169;SDS011;23062;13.952;100.608;2023-02-04T07:03:12;31.00;;;24.00;;
37169;SDS011;23062;13.952;100.608;2023-02-04T07:07:37;30.00;;;22.00;;
37169;SDS011;23062;13.952;100.608;2023-02-04T07:12:03;33.00;;;24.00;;
37169;SDS011;23062;13.952;100.608;2023-02-04T07:16:28;34.00;;;25.00;;
37169;SDS011;23062;13.952;100.608;2023-02-04T07:20:54;37.00;;;27.00;;
37169;SDS011;23062;13.952;100.608;2023-02-04T07:25:19;34.00;;;25.00;;
37169;SDS011;23062;13.952;100.608;2023-02-04T07:29:44;31.00;;;24.00;;
37169;SDS011;23062;13.952;100.608;2023-02-04T07:34:10;34.00;;;27.00;;
37169;SDS011;23062;13.952;100.608;2023-02-04T07:38:43;31.00;;;24.00;;
37169;SDS011;23062;13.952;100.608;2023-02-04T07:43:08;32.00;;;25.00;;
37169;SDS011;23062;13.952;100.608;2023-02-04T07:47:35;38.00;;;27.00;;
37169;SDS011;23062;13.952;100.608;2023-02-04T07:52:00;34.00;;;26.00;;
37169;SDS011;23062;13.952;100.608;2023-02-04T07:56:27;34.00;;;26.00;;
37169;SDS011;23062;13.952;100.608;2023-02-04T08:00:52;34.00;;;26.00;;
37169;SDS011;23062;13.952;100.608;2023-02-04T08:05:17;38.00;;;29.00;;
37169;SDS011;23062;13.952;100.608;2023-02-04T08:09:42;36.00;;;27.00;;
37169;SDS011;23062;13.952;100.608;2023-02-04T08:14:08;33.00;;;26.00;;
37169;SDS011;23062;13.952;100.608;2023-02-04T08:18:33;37.00;;;27.00;;
37169;SDS011;23062;13.952;100.608;2023-02-04T08:22:57;34.00;;;25.00;;
37169;SDS011;23062;13.952;100.608;2023-02-04T08:27:22;33.00;;;25.00;;
37169;SDS011;23062;13.952;100.608;2023-02-04T08:31:46;31.00;;;22.00;;
37169;SDS011;23062;13.952;100.608;2023-02-04T08:36:11;32.00;;;24.00;;
37169;SDS011;23062;13.952;100.608;2023-02-04T08:40:36;31.00;;;23.00;;
37169;SDS011;23062;13.952;100.608;2023-02-04T08:45:01;35.00;;;26.13;;
37169;SDS011;23062;13.952;100.608;2023-02-04T08:49:26;31.00;;;23.00;;
37169;SDS011;23062;13.952;100.608;2023-02-04T08:53:51;31.00;;;23.00;;
37169;SDS011;23062;13.952;100.608;2023-02-04T08:58:16;35.00;;;26.00;;
37169;SDS011;23062;13.952;100.608;2023-02-04T09:02:41;35.00;;;26.00;;
37169;SDS011;23062;13.952;100.608;2023-02-04T09:07:06;33.00;;;25.00;;
37169;SDS011;23062;13.952;100.608;2023-02-04T09:11:31;38.00;;;27.00;;
37169;SDS011;23062;13.952;100.608;2023-02-04T09:15:56;34.00;;;25.00;;
37169;SDS011;23062;13.952;100.608;2023-02-04T09:20:20;35.00;;;27.00;;
37169;SDS011;23062;13.952;100.608;2023-02-04T09:24:45;30.00;;;23.00;;
37169;SDS011;23062;13.952;100.608;2023-02-04T09:29:10;31.00;;;24.00;;
37169;SDS011;23062;13.952;100.608;2023-02-04T09:33:35;29.00;;;21.00;;
37169;SDS011;23062;13.952;100.608;2023-02-04T09:38:00;29.00;;;21.00;;
37169;SDS011;23062;13.952;100.608;2023-02-04T09:42:29;27.00;;;19.00;;
37169;SDS011;23062;13.952;100.608;2023-02-04T09:46:55;24.00;;;18.00;;
37169;SDS011;23062;13.952;100.608;2023-02-04T09:51:22;27.00;;;21.00;;
37169;SDS011;23062;13.952;100.608;2023-02-04T09:55:50;50.00;;;39.00;;
37169;SDS011;23062;13.952;100.608;2023-02-04T10:00:19;24.00;;;19.00;;
37169;SDS011;23062;13.952;100.608;2023-02-04T10:04:50;32.00;;;23.00;;
37169;SDS011;23062;13.952;100.608;2023-02-04T10:09:18;29.00;;;22.00;;
37169;SDS011;23062;13.952;100.608;2023-02-04T10:13:47;32.00;;;24.00;;
37169;SDS011;23062;13.952;100.608;2023-02-04T10:18:16;35.00;;;26.00;;
37169;SDS011;23062;13.952;100.608;2023-02-04T10:22:43;32.00;;;23.00;;
37169;SDS011;23062;13.952;100.608;2023-02-04T10:27:11;35.00;;;26.00;;
37169;SDS011;23062;13.952;100.608;2023-02-04T10:31:38;31.00;;;24.00;;
37169;SDS011;23062;13.952;100.608;2023-02-04T10:36:04;35.00;;;28.00;;
37169;SDS011;23062;13.952;100.608;2023-02-04T10:40:30;34.00;;;26.00;;
37169;SDS011;23062;13.952;100.608;2023-02-04T10:44:57;36.00;;;28.00;;
37169;SDS011;23062;13.952;100.608;2023-02-04T10:49:23;38.00;;;29.00;;
37169;SDS011;23062;13.952;100.608;2023-02-04T10:53:48;40.00;;;30.00;;
37169;SDS011;23062;13.952;100.608;2023-02-04T10:58:32;40.00;;;29.00;;
37169;SDS011;23062;13.952;100.608;2023-02-04T11:07:39;38.00;;;29.00;;
37169;SDS011;23062;13.952;100.608;2023-02-04T11:12:04;41.00;;;32.00;;
37169;SDS011;23062;13.952;100.608;2023-02-04T11:16:30;47.00;;;37.00;;
37169;SDS011;23062;13.952;100.608;2023-02-04T11:20:59;62.00;;;47.00;;
37169;SDS011;23062;13.952;100.608;2023-02-04T11:25:47;64.00;;;49.00;;
37169;SDS011;23062;13.952;100.608;2023-02-04T11:30:05;66.00;;;52.00;;
37169;SDS011;23062;13.952;100.608;2023-02-04T11:34:42;58.00;;;45.00;;
37169;SDS011;23062;13.952;100.608;2023-02-04T11:39:18;58.00;;;46.00;;
37169;SDS011;23062;13.952;100.608;2023-02-04T11:43:44;55.00;;;41.00;;
37169;SDS011;23062;13.952;100.608;2023-02-04T11:48:19;64.00;;;47.00;;
37169;SDS011;23062;13.952;100.608;2023-02-04T11:52:44;64.00;;;48.00;;
37169;SDS011;23062;13.952;100.608;2023-02-04T11:57:10;51.00;;;38.00;;
37169;SDS011;23062;13.952;100.608;2023-02-04T12:01:34;51.00;;;39.00;;
37169;SDS011;23062;13.952;100.608;2023-02-04T12:06:00;45.00;;;35.00;;
37169;SDS011;23062;13.952;100.608;2023-02-04T12:10:32;49.00;;;36.00;;
37169;SDS011;23062;13.952;100.608;2023-02-04T12:15:12;44.00;;;35.00;;
37169;SDS011;23062;13.952;100.608;2023-02-04T12:19:38;43.00;;;34.00;;
37169;SDS011;23062;13.952;100.608;2023-02-04T12:24:04;42.00;;;33.00;;
37169;SDS011;23062;13.952;100.608;2023-02-04T12:28:31;39.00;;;28.00;;
37169;SDS011;23062;13.952;100.608;2023-02-04T12:32:56;37.00;;;27.00;;
37169;SDS011;23062;13.952;100.608;2023-02-04T12:37:20;30.00;;;24.00;;
37169;SDS011;23062;13.952;100.608;2023-02-04T12:41:45;163.00;;;116.67;;
37169;SDS011;23062;13.952;100.608;2023-02-04T12:46:10;30.00;;;23.00;;
37169;SDS011;23062;13.952;100.608;2023-02-04T12:50:35;28.00;;;21.00;;
37169;SDS011;23062;13.952;100.608;2023-02-04T12:55:00;27.00;;;21.00;;
37169;SDS011;23062;13.952;100.608;2023-02-04T12:59:27;30.00;;;22.00;;
37169;SDS011;23062;13.952;100.608;2023-02-04T13:03:52;23.00;;;18.00;;
37169;SDS011;23062;13.952;100.608;2023-02-04T13:08:17;25.00;;;18.00;;
37169;SDS011;23062;13.952;100.608;2023-02-04T13:12:42;23.00;;;18.00;;
37169;SDS011;23062;13.952;100.608;2023-02-04T13:17:07;23.00;;;17.00;;
37169;SDS011;23062;13.952;100.608;2023-02-04T13:21:33;24.00;;;17.00;;
37169;SDS011;23062;13.952;100.608;2023-02-04T13:25:58;25.00;;;19.00;;
37169;SDS011;23062;13.952;100.608;2023-02-04T13:30:24;24.00;;;17.00;;
37169;SDS011;23062;13.952;100.608;2023-02-04T13:34:52;22.00;;;17.00;;
37169;SDS011;23062;13.952;100.608;2023-02-04T13:39:18;22.00;;;17.00;;
37169;SDS011;23062;13.952;100.608;2023-02-04T13:43:45;24.00;;;17.00;;
37169;SDS011;23062;13.952;100.608;2023-02-04T13:48:09;23.00;;;18.00;;
37169;SDS011;23062;13.952;100.608;2023-02-04T13:52:35;21.00;;;15.00;;
37169;SDS011;23062;13.952;100.608;2023-02-04T13:57:00;19.00;;;15.00;;
37169;SDS011;23062;13.952;100.608;2023-02-04T14:01:26;18.00;;;14.00;;
37169;SDS011;23062;13.952;100.608;2023-02-04T14:05:52;21.00;;;15.00;;
37169;SDS011;23062;13.952;100.608;2023-02-04T14:10:18;19.00;;;14.00;;
37169;SDS011;23062;13.952;100.608;2023-02-04T14:14:45;19.00;;;14.00;;
37169;SDS011;23062;13.952;100.608;2023-02-04T14:19:10;20.00;;;15.00;;
37169;SDS011;23062;13.952;100.608;2023-02-04T14:23:41;18.00;;;14.00;;
37169;SDS011;23062;13.952;100.608;2023-02-04T14:28:06;16.00;;;12.00;;
37169;SDS011;23062;13.952;100.608;2023-02-04T14:32:32;18.00;;;13.00;;
37169;SDS011;23062;13.952;100.608;2023-02-04T14:36:57;16.00;;;12.00;;
37169;SDS011;23062;13.952;100.608;2023-02-04T14:41:22;17.00;;;13.00;;
37169;SDS011;23062;13.952;100.608;2023-02-04T14:45:47;1621.00;;;1234.00;;
37169;SDS011;23062;13.952;100.608;2023-02-04T14:50:13;1288.00;;;1011.00;;
37169;SDS011;23062;13.952;100.608;2023-02-04T14:54:39;2326.00;;;1825.00;;
37169;SDS011;23062;13.952;100.608;2023-02-04T14:59:06;2418.00;;;1810.00;;
37169;SDS011;23062;13.952;100.608;2023-02-04T15:03:30;2179.00;;;1739.00;;
37169;SDS011;23062;13.952;100.608;2023-02-04T15:07:59;2107.00;;;1647.00;;
37169;SDS011;23062;13.952;100.608;2023-02-04T15:12:24;2443.00;;;1863.00;;
37169;SDS011;23062;13.952;100.608;2023-02-04T15:16:49;15.00;;;11.00;;
37169;SDS011;23062;13.952;100.608;2023-02-04T15:21:13;16.00;;;12.00;;
37169;SDS011;23062;13.952;100.608;2023-02-04T15:25:38;15.00;;;11.00;;
37169;SDS011;23062;13.952;100.608;2023-02-04T15:30:04;16.00;;;11.00;;
37169;SDS011;23062;13.952;100.608;2023-02-04T15:34:30;16.00;;;12.00;;
37169;SDS011;23062;13.952;100.608;2023-02-04T15:38:58;14.00;;;11.00;;
37169;SDS011;23062;13.952;100.608;2023-02-04T15:43:23;13.00;;;9.00;;
37169;SDS011;23062;13.952;100.608;2023-02-04T15:47:48;17.00;;;13.00;;
37169;SDS011;23062;13.952;100.608;2023-02-04T15:52:12;16.00;;;11.00;;
37169;SDS011;23062;13.952;100.608;2023-02-04T15:56:39;15.00;;;11.00;;
37169;SDS011;23062;13.952;100.608;2023-02-04T16:01:04;16.00;;;11.00;;
37169;SDS011;23062;13.952;100.608;2023-02-04T16:05:30;16.00;;;11.00;;
37169;SDS011;23062;13.952;100.608;2023-02-04T16:09:54;12.00;;;9.00;;
37169;SDS011;23062;13.952;100.608;2023-02-04T16:14:21;16.00;;;11.00;;
37169;SDS011;23062;13.952;100.608;2023-02-04T16:18:46;15.00;;;10.00;;
37169;SDS011;23062;13.952;100.608;2023-02-04T16:23:11;17.00;;;11.20;;
37169;SDS011;23062;13.952;100.608;2023-02-04T16:27:35;16.00;;;11.00;;
37169;SDS011;23062;13.952;100.608;2023-02-04T16:32:00;12.00;;;9.00;;
37169;SDS011;23062;13.952;100.608;2023-02-04T16:36:25;15.00;;;10.00;;
37169;SDS011;23062;13.952;100.608;2023-02-04T16:40:50;15.00;;;11.00;;
37169;SDS011;23062;13.952;100.608;2023-02-04T16:45:16;18.00;;;12.13;;
37169;SDS011;23062;13.952;100.608;2023-02-04T16:49:41;13.00;;;9.00;;
37169;SDS011;23062;13.952;100.608;2023-02-04T16:54:07;14.00;;;10.00;;
37169;SDS011;23062;13.952;100.608;2023-02-04T16:58:34;15.00;;;11.00;;
37169;SDS011;23062;13.952;100.608;2023-02-04T17:03:01;13.00;;;10.00;;
37169;SDS011;23062;13.952;100.608;2023-02-04T17:07:26;15.00;;;10.00;;
37169;SDS011;23062;13.952;100.608;2023-02-04T17:11:51;14.00;;;10.00;;
37169;SDS011;23062;13.952;100.608;2023-02-04T17:16:17;13.00;;;10.00;;
37169;SDS011;23062;13.952;100.608;2023-02-04T17:20:41;12.00;;;9.00;;
37169;SDS011;23062;13.952;100.608;2023-02-04T17:25:07;14.00;;;10.00;;
37169;SDS011;23062;13.952;100.608;2023-02-04T17:29:32;16.00;;;11.00;;
37169;SDS011;23062;13.952;100.608;2023-02-04T17:33:57;16.00;;;12.00;;
37169;SDS011;23062;13.952;100.608;2023-02-04T17:38:22;13.00;;;10.00;;
37169;SDS011;23062;13.952;100.608;2023-02-04T17:42:47;14.00;;;10.00;;
37169;SDS011;23062;13.952;100.608;2023-02-04T17:47:12;13.00;;;9.00;;
37169;SDS011;23062;13.952;100.608;2023-02-04T17:51:37;13.00;;;9.00;;
37169;SDS011;23062;13.952;100.608;2023-02-04T17:56:02;24.00;;;15.87;;
37169;SDS011;23062;13.952;100.608;2023-02-04T18:00:29;13.00;;;9.00;;
37169;SDS011;23062;13.952;100.608;2023-02-04T18:04:57;13.00;;;9.00;;
37169;SDS011;23062;13.952;100.608;2023-02-04T18:09:23;13.00;;;10.00;;
37169;SDS011;23062;13.952;100.608;2023-02-04T18:13:48;14.00;;;10.00;;
37169;SDS011;23062;13.952;100.608;2023-02-04T18:18:23;11.00;;;8.00;;
37169;SDS011;23062;13.952;100.608;2023-02-04T18:22:58;14.00;;;10.00;;
37169;SDS011;23062;13.952;100.608;2023-02-04T18:27:31;14.00;;;10.00;;
37169;SDS011;23062;13.952;100.608;2023-02-04T18:31:58;11.00;;;8.00;;
37169;SDS011;23062;13.952;100.608;2023-02-04T18:36:31;13.00;;;9.00;;
37169;SDS011;23062;13.952;100.608;2023-02-04T18:45:44;12.00;;;8.00;;
37169;SDS011;23062;13.952;100.608;2023-02-04T18:50:21;14.00;;;10.00;;
37169;SDS011;23062;13.952;100.608;2023-02-04T18:54:58;11.00;;;8.00;;
37169;SDS011;23062;13.952;100.608;2023-02-04T18:59:16;12.00;;;8.00;;
37169;SDS011;23062;13.952;100.608;2023-02-04T19:03:46;11.00;;;8.00;;
37169;SDS011;23062;13.952;100.608;2023-02-04T19:08:22;13.00;;;9.00;;
37169;SDS011;23062;13.952;100.608;2023-02-04T19:12:49;10.00;;;7.00;;
37169;SDS011;23062;13.952;100.608;2023-02-04T19:21:46;12.00;;;8.00;;
37169;SDS011;23062;13.952;100.608;2023-02-04T19:26:23;13.00;;;9.00;;
37169;SDS011;23062;13.952;100.608;2023-02-04T19:30:57;13.00;;;9.00;;
37169;SDS011;23062;13.952;100.608;2023-02-04T19:35:23;13.00;;;10.00;;
37169;SDS011;23062;13.952;100.608;2023-02-04T19:39:49;15.00;;;10.00;;
37169;SDS011;23062;13.952;100.608;2023-02-04T19:49:09;14.00;;;11.00;;
37169;SDS011;23062;13.952;100.608;2023-02-04T19:53:44;16.00;;;11.00;;
37169;SDS011;23062;13.952;100.608;2023-02-04T19:58:19;12.00;;;9.00;;
37169;SDS011;23062;13.952;100.608;2023-02-04T20:02:49;13.00;;;9.00;;
37169;SDS011;23062;13.952;100.608;2023-02-04T20:07:24;15.00;;;10.00;;
37169;SDS011;23062;13.952;100.608;2023-02-04T20:11:57;13.00;;;9.00;;
37169;SDS011;23062;13.952;100.608;2023-02-04T20:16:28;15.00;;;11.00;;
37169;SDS011;23062;13.952;100.608;2023-02-04T20:20:52;14.00;;;10.00;;
37169;SDS011;23062;13.952;100.608;2023-02-04T20:29:58;15.00;;;11.00;;
37169;SDS011;23062;13.952;100.608;2023-02-04T20:34:33;17.00;;;12.00;;
37169;SDS011;23062;13.952;100.608;2023-02-04T20:43:46;21.00;;;16.00;;
37169;SDS011;23062;13.952;100.608;2023-02-04T20:57:16;23.00;;;17.00;;
37169;SDS011;23062;13.952;100.608;2023-02-04T21:01:45;20.00;;;14.00;;
37169;SDS011;23062;13.952;100.608;2023-02-04T21:10:50;20.00;;;14.00;;
37169;SDS011;23062;13.952;100.608;2023-02-04T21:15:15;19.00;;;15.00;;
37169;SDS011;23062;13.952;100.608;2023-02-04T21:19:40;21.00;;;15.00;;
37169;SDS011;23062;13.952;100.608;2023-02-04T21:24:06;21.00;;;16.00;;
37169;SDS011;23062;13.952;100.608;2023-02-04T21:28:32;21.00;;;15.00;;
37169;SDS011;23062;13.952;100.608;2023-02-04T21:32:57;24.00;;;18.00;;
37169;SDS011;23062;13.952;100.608;2023-02-04T21:37:22;23.00;;;18.00;;
37169;SDS011;23062;13.952;100.608;2023-02-04T21:41:47;20.00;;;15.00;;
37169;SDS011;23062;13.952;100.608;2023-02-04T21:46:15;22.00;;;16.00;;
37169;SDS011;23062;13.952;100.608;2023-02-04T21:50:40;21.00;;;16.00;;
37169;SDS011;23062;13.952;100.608;2023-02-04T21:55:05;24.00;;;17.00;;
37169;SDS011;23062;13.952;100.608;2023-02-04T21:59:30;25.00;;;18.00;;
37169;SDS011;23062;13.952;100.608;2023-02-04T22:03:55;20.00;;;15.00;;
37169;SDS011;23062;13.952;100.608;2023-02-04T22:08:27;18.00;;;13.00;;
37169;SDS011;23062;13.952;100.608;2023-02-04T22:12:52;25.00;;;18.00;;
37169;SDS011;23062;13.952;100.608;2023-02-04T22:17:18;27.00;;;18.20;;
37169;SDS011;23062;13.952;100.608;2023-02-04T22:21:43;28.00;;;22.00;;
37169;SDS011;23062;13.952;100.608;2023-02-04T22:26:09;24.00;;;17.00;;
37169;SDS011;23062;13.952;100.608;2023-02-04T22:30:34;26.00;;;19.00;;
37169;SDS011;23062;13.952;100.608;2023-02-04T22:35:00;31.00;;;24.00;;
37169;SDS011;23062;13.952;100.608;2023-02-04T22:39:24;29.00;;;23.00;;
37169;SDS011;23062;13.952;100.608;2023-02-04T22:43:49;30.00;;;22.00;;
37169;SDS011;23062;13.952;100.608;2023-02-04T22:48:14;30.00;;;24.00;;
37169;SDS011;23062;13.952;100.608;2023-02-04T22:52:39;33.00;;;24.00;;
37169;SDS011;23062;13.952;100.608;2023-02-04T22:57:07;31.00;;;24.00;;
37169;SDS011;23062;13.952;100.608;2023-02-04T23:01:32;31.00;;;22.40;;
37169;SDS011;23062;13.952;100.608;2023-02-04T23:05:56;32.00;;;24.00;;
37169;SDS011;23062;13.952;100.608;2023-02-04T23:10:21;31.00;;;24.00;;
37169;SDS011;23062;13.952;100.608;2023-02-04T23:14:47;38.00;;;28.00;;
37169;SDS011;23062;13.952;100.608;2023-02-04T23:19:12;30.00;;;23.00;;
37169;SDS011;23062;13.952;100.608;2023-02-04T23:23:37;32.00;;;25.00;;
37169;SDS011;23062;13.952;100.608;2023-02-04T23:28:02;33.00;;;24.00;;
37169;SDS011;23062;13.952;100.608;2023-02-04T23:32:27;33.00;;;24.00;;
37169;SDS011;23062;13.952;100.608;2023-02-04T23:36:52;29.00;;;23.00;;
37169;SDS011;23062;13.952;100.608;2023-02-04T23:41:18;36.00;;;25.20;;
37169;SDS011;23062;13.952;100.608;2023-02-04T23:45:44;33.00;;;25.00;;
37169;SDS011;23062;13.952;100.608;2023-02-04T23:50:09;31.00;;;24.00;;
37169;SDS011;23062;13.952;100.608;2023-02-04T23:54:34;35.00;;;28.00;;
37169;SDS011;23062;13.952;100.608;2023-02-04T23:59:00;43.00;;;31.00;;
